Time;durP1;ratioP1;P1;durP2;ratioP2;P2;SDS_P1;SDS_P2;PMS_P1;PMS_P2;Temp;Humidity;BMP_temperature;BMP_pressure;BME280_temperature;BME280_humidity;BME280_pressure;Samples;Min_cycle;Max_cycle;Signal;HPM_P1;HPM_P2
2023/07/30 00:00:06;;;;;;;;;;;;;;;19.48;55.34;100863.88;4850500;29;125128;-75
2023/07/30 00:02:37;;;;;;;;;;;;;;;19.45;55.26;100865.00;4854617;29;120213;-75
2023/07/30 00:05:04;;;;;;;;;;;;;;;19.43;55.26;100865.09;4851158;29;118737;-75
2023/07/30 00:07:31;;;;;;;;;;;;;;;19.39;55.43;100860.13;4845990;29;125162;-75
2023/07/30 00:09:58;;;;;;;;;;;;;;;19.38;55.37;100863.78;4848502;28;123805;-74
2023/07/30 00:12:25;;;;;;;;;;;;;;;19.34;55.45;100857.81;4847173;29;120011;-75
2023/07/30 00:14:52;;;;;;;;;;;;;;;19.32;55.36;100857.06;4852485;28;118474;-75
2023/07/30 00:17:19;;;;;;;;;;;;;;;19.31;55.45;100862.56;4852172;29;123709;-75
2023/07/30 00:19:46;;;;;;;;;;;;;;;19.28;55.42;100857.47;4849890;29;124220;-75
2023/07/30 00:22:13;;;;;;;;;;;;;;;19.23;55.40;100858.69;4851520;29;120084;-75
2023/07/30 00:24:40;;;;;;;;;;;;;;;19.21;55.38;100852.59;4850340;29;117621;-75
2023/07/30 00:27:07;;;;;;;;;;;;;;;19.18;55.26;100855.53;4846522;29;124358;-75
2023/07/30 00:29:34;;;;;;;;;;;;;;;19.17;55.28;100856.50;4835593;29;123105;-75
2023/07/30 00:32:01;;;;;;;;;;;;;;;19.15;55.32;100858.44;4850539;28;120611;-75
2023/07/30 00:34:28;;;;;;;;;;;;;;;19.11;55.44;100857.00;4838222;29;119700;-75
2023/07/30 00:36:55;;;;;;;;;;;;;;;19.09;55.44;100858.09;4834238;28;124638;-75
2023/07/30 00:39:22;;;;;;;;;;;;;;;19.05;55.48;100862.88;4849195;28;124259;-75
2023/07/30 00:41:50;;;;;;;;;;;;;;;19.03;55.51;100860.31;4836094;29;118490;-75
2023/07/30 00:44:17;;;;;;;;;;;;;;;19.01;55.51;100861.41;4847151;29;119181;-75
2023/07/30 00:46:44;;;;;;;;;;;;;;;18.99;55.45;100863.38;4851976;28;123515;-76
2023/07/30 00:49:12;;;;;;;;;;;;;;;18.96;55.42;100858.25;4850878;29;124942;-76
2023/07/30 00:51:40;;;;;;;;;;;;;;;18.92;55.43;100862.16;4851401;28;118653;-75
2023/07/30 00:54:07;;;;;;;;;;;;;;;18.89;55.44;100868.59;4849784;29;119747;-75
2023/07/30 00:56:34;;;;;;;;;;;;;;;18.88;55.47;100866.91;4834200;29;123322;-75
2023/07/30 00:59:02;;;;;;;;;;;;;;;18.85;55.49;100870.69;4850648;28;123123;-76
2023/07/30 01:01:33;;;;;;;;;;;;;;;18.82;55.62;100870.09;4851359;29;120111;-75
2023/07/30 01:04:00;;;;;;;;;;;;;;;18.81;55.60;100876.41;4847486;29;118591;-75
2023/07/30 01:06:28;;;;;;;;;;;;;;;18.80;55.46;100886.31;4851810;29;123603;-75
2023/07/30 01:08:55;;;;;;;;;;;;;;;18.79;55.65;100872.97;4851189;29;123474;-75
2023/07/30 01:11:22;;;;;;;;;;;;;;;18.77;55.56;100878.44;4852095;29;120346;-75
2023/07/30 01:13:50;;;;;;;;;;;;;;;18.76;55.66;100886.63;4850789;28;120099;-75
2023/07/30 01:16:17;;;;;;;;;;;;;;;18.75;55.51;100888.44;4849638;29;125496;-75
2023/07/30 01:18:44;;;;;;;;;;;;;;;18.75;55.58;100888.44;4851740;29;124397;-75
2023/07/30 01:21:11;;;;;;;;;;;;;;;18.73;55.56;100887.72;4849472;28;119793;-75
2023/07/30 01:23:38;;;;;;;;;;;;;;;18.73;55.63;100890.41;4853533;29;120721;-74
2023/07/30 01:26:10;;;;;;;;;;;;;;;18.72;55.64;100888.69;4850807;28;122894;-74
2023/07/30 01:28:41;;;;;;;;;;;;;;;18.72;55.66;100887.84;4843167;28;123096;-74
2023/07/30 01:31:09;;;;;;;;;;;;;;;18.69;55.54;100894.31;4845125;29;119560;-75
2023/07/30 01:33:37;;;;;;;;;;;;;;;18.67;55.54;100896.25;4847218;29;119369;-75
2023/07/30 01:36:04;;;;;;;;;;;;;;;18.67;55.66;100896.25;4847927;29;124662;-75
2023/07/30 01:38:33;;;;;;;;;;;;;;;18.64;55.55;100891.97;4848728;28;123560;-75
2023/07/30 01:41:00;;;;;;;;;;;;;;;18.62;55.84;100903.81;4853712;29;118612;-75
2023/07/30 01:43:27;;;;;;;;;;;;;;;18.60;55.55;100905.75;4854728;29;117847;-75
2023/07/30 01:45:54;;;;;;;;;;;;;;;18.58;55.82;100908.56;4854101;28;124144;-75
2023/07/30 01:48:21;;;;;;;;;;;;;;;18.57;55.69;100911.34;4853422;28;124411;-76
2023/07/30 01:50:48;;;;;;;;;;;;;;;18.56;55.58;100909.66;4853917;29;119644;-75
2023/07/30 01:53:16;;;;;;;;;;;;;;;18.55;55.66;100913.31;4853260;28;118739;-76
2023/07/30 01:55:49;;;;;;;;;;;;;;;18.54;55.69;100906.25;4861529;28;124946;-75
2023/07/30 01:58:16;;;;;;;;;;;;;;;18.52;55.61;100913.56;4849472;28;123835;-76
2023/07/30 02:00:44;;;;;;;;;;;;;;;18.51;55.57;100911.84;4838419;29;118798;-75
2023/07/30 02:03:10;;;;;;;;;;;;;;;18.49;55.80;100910.09;4856237;28;118948;-76
2023/07/30 02:05:38;;;;;;;;;;;;;;;18.47;55.63;100912.06;4853806;28;123504;-74
2023/07/30 02:08:05;;;;;;;;;;;;;;;18.45;55.65;100907.78;4851673;28;124090;-74
2023/07/30 02:10:32;;;;;;;;;;;;;;;18.43;55.66;100910.59;4852159;28;120888;-74
2023/07/30 02:12:59;;;;;;;;;;;;;;;18.42;55.70;100914.25;4848534;29;118673;-74
2023/07/30 02:15:26;;;;;;;;;;;;;;;18.41;55.67;100912.53;4853767;29;122968;-75
2023/07/30 02:17:53;;;;;;;;;;;;;;;18.40;55.86;100908.16;4853693;29;123052;-75
2023/07/30 02:20:21;;;;;;;;;;;;;;;18.40;55.94;100910.84;4845671;28;119767;-74
2023/07/30 02:22:48;;;;;;;;;;;;;;;18.41;55.92;100911.69;4853037;28;118750;-74
2023/07/30 02:25:15;;;;;;;;;;;;;;;18.41;55.91;100903.66;4837547;29;123309;-74
2023/07/30 02:27:42;;;;;;;;;;;;;;;18.41;55.94;100907.19;4844122;28;124260;-74
2023/07/30 02:30:09;;;;;;;;;;;;;;;18.41;56.00;100907.19;4848977;28;118499;-74
2023/07/30 02:32:36;;;;;;;;;;;;;;;18.41;55.74;100912.53;4853243;29;117818;-74
2023/07/30 02:35:03;;;;;;;;;;;;;;;18.42;55.87;100903.53;4845051;28;124323;-75
2023/07/30 02:37:30;;;;;;;;;;;;;;;18.42;55.91;100900.84;4848597;28;124946;-74
2023/07/30 02:39:59;;;;;;;;;;;;;;;18.41;56.13;100896.44;4843443;29;119508;-74
2023/07/30 02:42:26;;;;;;;;;;;;;;;18.42;55.97;100892.81;4842407;29;118922;-74
2023/07/30 02:44:53;;;;;;;;;;;;;;;18.41;55.95;100901.81;4848670;28;125315;-73
2023/07/30 02:47:20;;;;;;;;;;;;;;;18.41;55.82;100895.59;4849842;29;124033;-73
2023/07/30 02:49:47;;;;;;;;;;;;;;;18.40;55.96;100894.75;4853745;28;119843;-73
2023/07/30 02:52:14;;;;;;;;;;;;;;;18.40;55.96;100889.41;4851100;29;119565;-74
2023/07/30 02:54:41;;;;;;;;;;;;;;;18.40;56.01;100894.75;4852465;29;124416;-74
2023/07/30 02:57:08;;;;;;;;;;;;;;;18.41;56.01;100887.56;4843820;29;124940;-73
2023/07/30 02:59:36;;;;;;;;;;;;;;;18.42;55.97;100892.81;4835765;29;119153;-73
2023/07/30 03:02:07;;;;;;;;;;;;;;;18.43;56.10;100893.66;4836850;29;118953;-73
2023/07/30 03:04:34;;;;;;;;;;;;;;;18.44;56.00;100884.63;4844741;29;124213;-73
2023/07/30 03:07:01;;;;;;;;;;;;;;;18.46;55.83;100894.28;4847847;28;125112;-74
2023/07/30 03:09:28;;;;;;;;;;;;;;;18.46;55.97;100894.28;4837868;29;118491;-73
2023/07/30 03:11:55;;;;;;;;;;;;;;;18.47;56.22;100895.13;4846953;28;118460;-73
2023/07/30 03:14:22;;;;;;;;;;;;;;;18.51;55.96;100903.78;4852124;28;124721;-74
2023/07/30 03:16:49;;;;;;;;;;;;;;;18.49;55.97;100899.38;4852840;28;123853;-73
2023/07/30 03:19:17;;;;;;;;;;;;;;;18.51;56.08;100906.47;4852171;28;119266;-73
2023/07/30 03:21:44;;;;;;;;;;;;;;;18.52;56.17;100908.19;4850136;29;119094;-73
2023/07/30 03:24:11;;;;;;;;;;;;;;;18.55;56.17;100913.31;4850617;29;123532;-73
2023/07/30 03:26:38;;;;;;;;;;;;;;;18.57;56.10;100916.72;4847342;28;124522;-73
2023/07/30 03:29:05;;;;;;;;;;;;;;;18.61;56.25;100912.81;4833976;29;119117;-73
2023/07/30 03:31:32;;;;;;;;;;;;;;;18.62;56.14;100909.16;4842321;28;118769;-73
2023/07/30 03:34:00;;;;;;;;;;;;;;;18.65;56.21;100908.94;4835625;29;123670;-73
2023/07/30 03:36:27;;;;;;;;;;;;;;;18.67;56.11;100907.00;4845901;29;124026;-74
2023/07/30 03:38:55;;;;;;;;;;;;;;;18.68;56.13;100908.69;4848472;29;119115;-73
2023/07/30 03:41:22;;;;;;;;;;;;;;;18.70;56.15;100911.25;4843474;28;120229;-74
2023/07/30 03:43:49;;;;;;;;;;;;;;;18.74;56.17;100912.72;4849841;28;124118;-73
2023/07/30 03:46:17;;;;;;;;;;;;;;;18.76;56.29;100917.00;4849140;28;124390;-73
2023/07/30 03:48:44;;;;;;;;;;;;;;;18.78;56.11;100912.38;4846675;29;119243;-73
2023/07/30 03:51:12;;;;;;;;;;;;;;;18.81;56.31;100914.81;4847933;29;119404;-73
2023/07/30 03:53:39;;;;;;;;;;;;;;;18.83;56.15;100918.25;4846827;28;124978;-73
2023/07/30 03:56:06;;;;;;;;;;;;;;;18.88;56.18;100919.72;4851780;28;123166;-73
2023/07/30 03:58:33;;;;;;;;;;;;;;;18.90;56.14;100929.38;4848344;28;118424;-73
2023/07/30 04:01:01;;;;;;;;;;;;;;;18.93;56.12;100930.94;4851441;28;120304;-73
2023/07/30 04:03:28;;;;;;;;;;;;;;;18.96;56.14;100933.38;4835387;29;124713;-72
2023/07/30 04:05:55;;;;;;;;;;;;;;;18.98;56.07;100921.53;4850394;29;123170;-74
2023/07/30 04:08:22;;;;;;;;;;;;;;;18.98;56.22;100916.19;4852301;28;118348;-73
2023/07/30 04:10:49;;;;;;;;;;;;;;;19.00;56.15;100914.22;4834818;29;117718;-74
2023/07/30 04:13:16;;;;;;;;;;;;;;;19.02;56.26;100923.03;4850851;29;123925;-73
2023/07/30 04:15:43;;;;;;;;;;;;;;;19.04;56.21;100930.94;4848748;29;123836;-74
2023/07/30 04:18:10;;;;;;;;;;;;;;;19.06;56.21;100929.00;4841732;29;119583;-74
2023/07/30 04:20:38;;;;;;;;;;;;;;;19.08;56.35;100927.06;4845955;28;117911;-74
2023/07/30 04:23:04;;;;;;;;;;;;;;;19.10;56.13;100930.47;4849029;28;124523;-74
2023/07/30 04:25:32;;;;;;;;;;;;;;;19.11;56.22;100937.53;4850864;28;123182;-74
2023/07/30 04:27:59;;;;;;;;;;;;;;;19.13;56.24;100938.25;4845035;28;118529;-74
2023/07/30 04:30:26;;;;;;;;;;;;;;;19.15;56.22;100938.16;4829616;29;118239;-74
2023/07/30 04:32:54;;;;;;;;;;;;;;;19.17;56.26;100941.56;4842821;29;123522;-73
2023/07/30 04:35:21;;;;;;;;;;;;;;;19.19;56.25;100940.47;4843935;28;123081;-73
2023/07/30 04:37:48;;;;;;;;;;;;;;;19.22;56.38;100940.22;4844697;28;121578;-73
2023/07/30 04:40:16;;;;;;;;;;;;;;;19.25;56.26;100944.50;4850008;29;119327;-73
2023/07/30 04:42:43;;;;;;;;;;;;;;;19.28;56.45;100938.03;4844822;29;124501;-73
2023/07/30 04:45:10;;;;;;;;;;;;;;;19.30;56.27;100942.28;4843694;29;124347;-73
2023/07/30 04:47:40;;;;;;;;;;;;;;;19.33;56.29;100941.22;4843887;28;119016;-73
2023/07/30 04:50:09;;;;;;;;;;;;;;;19.34;56.25;100942.91;4851410;29;118134;-73
2023/07/30 04:52:36;;;;;;;;;;;;;;;19.37;56.37;100946.19;4853151;28;123967;-73
2023/07/30 04:55:03;;;;;;;;;;;;;;;19.40;56.26;100939.72;4855176;29;122994;-73
2023/07/30 04:57:30;;;;;;;;;;;;;;;19.42;56.35;100952.06;4854774;29;118701;-73
2023/07/30 04:59:57;;;;;;;;;;;;;;;19.44;56.26;100944.72;4843090;29;117892;-73
2023/07/30 05:02:24;;;;;;;;;;;;;;;19.45;56.33;100942.88;4853325;29;124559;-74
2023/07/30 05:04:51;;;;;;;;;;;;;;;19.48;56.33;100949.81;4851604;29;124226;-74
2023/07/30 05:07:18;;;;;;;;;;;;;;;19.50;56.43;100943.38;4854907;28;119421;-75
2023/07/30 05:09:45;;;;;;;;;;;;;;;19.52;56.34;100940.56;4863806;28;117791;-74
2023/07/30 05:12:12;;;;;;;;;;;;;;;19.55;56.40;100941.19;4853570;29;124669;-73
2023/07/30 05:14:39;;;;;;;;;;;;;;;19.58;56.47;100946.28;4856006;28;124500;-73
2023/07/30 05:17:06;;;;;;;;;;;;;;;19.64;56.50;100951.16;4846126;28;119299;-73
2023/07/30 05:19:34;;;;;;;;;;;;;;;19.69;56.55;100947.25;4851174;28;119308;-75
2023/07/30 05:22:01;;;;;;;;;;;;;;;19.74;56.38;100955.81;4852412;29;124304;-75
2023/07/30 05:24:28;;;;;;;;;;;;;;;19.77;56.42;100956.41;4845684;29;123595;-74
2023/07/30 05:26:55;;;;;;;;;;;;;;;19.80;56.46;100961.53;4843749;28;121151;-74
2023/07/30 05:29:22;;;;;;;;;;;;;;;19.82;56.42;100958.72;4850277;28;119401;-74
2023/07/30 05:31:49;;;;;;;;;;;;;;;19.83;56.39;100960.44;4844617;29;124370;-73
2023/07/30 05:34:16;;;;;;;;;;;;;;;19.84;56.38;100967.53;4848567;29;124252;-73
2023/07/30 05:36:43;;;;;;;;;;;;;;;19.86;56.43;100965.56;4846377;29;119518;-72
2023/07/30 05:39:10;;;;;;;;;;;;;;;19.89;56.36;100968.00;4849752;28;118227;-72
2023/07/30 05:41:37;;;;;;;;;;;;;;;19.92;56.32;100969.56;4853980;28;125039;-72
2023/07/30 05:44:05;;;;;;;;;;;;;;;19.94;56.43;100965.75;4851129;29;124116;-72
2023/07/30 05:46:32;;;;;;;;;;;;;;;19.96;56.42;100963.81;4847451;29;119821;-72
2023/07/30 05:48:59;;;;;;;;;;;;;;;19.97;56.34;100968.22;4840019;29;118880;-73
2023/07/30 05:51:26;;;;;;;;;;;;;;;19.98;56.29;100961.84;4846097;28;123954;-72
2023/07/30 05:53:53;;;;;;;;;;;;;;;19.99;56.40;100966.25;4841089;29;124373;-72
2023/07/30 05:56:20;;;;;;;;;;;;;;;20.03;56.37;100962.31;4845190;29;120358;-73
2023/07/30 05:58:47;;;;;;;;;;;;;;;20.04;56.39;100963.16;4838011;29;118097;-74
2023/07/30 06:01:15;;;;;;;;;;;;;;;20.06;56.37;100968.41;4841061;28;124184;-73
2023/07/30 06:03:42;;;;;;;;;;;;;;;20.08;56.49;100958.38;4849318;29;124198;-73
2023/07/30 06:06:09;;;;;;;;;;;;;;;20.11;56.47;100974.28;4844420;29;120028;-73
2023/07/30 06:08:36;;;;;;;;;;;;;;;20.14;56.32;100968.66;4848251;29;118900;-73
2023/07/30 06:11:03;;;;;;;;;;;;;;;20.17;56.33;100968.38;4848988;29;124261;-73
2023/07/30 06:13:30;;;;;;;;;;;;;;;20.17;56.39;100969.25;4845080;29;123997;-73
2023/07/30 06:15:57;;;;;;;;;;;;;;;20.19;56.53;100967.28;4844460;29;121334;-72
2023/07/30 06:18:24;;;;;;;;;;;;;;;20.23;56.45;100967.88;4835029;29;119850;-72
2023/07/30 06:20:51;;;;;;;;;;;;;;;20.28;56.45;100970.19;4834419;28;124479;-72
2023/07/30 06:23:18;;;;;;;;;;;;;;;20.33;56.45;100974.19;4835223;28;126130;-72
2023/07/30 06:25:46;;;;;;;;;;;;;;;20.36;56.47;100971.25;4836658;29;119331;-72
2023/07/30 06:28:12;;;;;;;;;;;;;;;20.39;56.31;100972.81;4841667;29;118666;-72
2023/07/30 06:30:40;;;;;;;;;;;;;;;20.41;56.38;100977.06;4843835;28;124988;-72
2023/07/30 06:33:07;;;;;;;;;;;;;;;20.46;56.42;100975.84;4838338;29;123887;-72
2023/07/30 06:35:34;;;;;;;;;;;;;;;20.49;56.34;100972.88;4860465;28;118615;-72
2023/07/30 06:38:01;;;;;;;;;;;;;;;20.51;56.33;100971.78;4835128;29;118334;-73
2023/07/30 06:40:28;;;;;;;;;;;;;;;20.53;56.44;100968.94;4848452;29;124264;-72
2023/07/30 06:42:55;;;;;;;;;;;;;;;20.54;56.34;100976.03;4850174;29;124248;-72
2023/07/30 06:45:23;;;;;;;;;;;;;;;20.54;56.36;100976.03;4846964;29;119389;-72
2023/07/30 06:47:50;;;;;;;;;;;;;;;20.55;56.38;100981.31;4846670;29;118861;-73
2023/07/30 06:50:18;;;;;;;;;;;;;;;20.55;56.38;100975.03;4852263;28;124414;-73
2023/07/30 06:52:45;;;;;;;;;;;;;;;20.57;56.38;100975.78;4853254;29;124314;-72
2023/07/30 06:55:12;;;;;;;;;;;;;;;20.58;56.44;100978.31;4852302;29;119676;-72
2023/07/30 06:57:39;;;;;;;;;;;;;;;20.61;56.51;100982.66;4851807;28;118707;-72
2023/07/30 07:00:06;;;;;;;;;;;;;;;20.65;56.54;100978.72;4851843;28;123833;-72
2023/07/30 07:02:33;;;;;;;;;;;;;;;20.69;56.52;100980.16;4847614;29;123881;-72
2023/07/30 07:05:00;;;;;;;;;;;;;;;20.75;56.41;100979.59;4836174;29;119660;-72
2023/07/30 07:07:27;;;;;;;;;;;;;;;20.82;56.57;100984.50;4850778;29;120310;-72
2023/07/30 07:09:55;;;;;;;;;;;;;;;20.91;56.57;100989.94;4851138;28;124681;-73
2023/07/30 07:12:23;;;;;;;;;;;;;;;20.99;56.61;100987.41;4851991;28;124157;-72
2023/07/30 07:14:50;;;;;;;;;;;;;;;21.08;56.62;100977.69;4845194;28;120425;-72
2023/07/30 07:17:17;;;;;;;;;;;;;;;21.12;56.55;100976.44;4847306;29;118059;-72
2023/07/30 07:19:44;;;;;;;;;;;;;;;21.18;56.48;100969.66;4848315;28;124849;-72
2023/07/30 07:22:11;;;;;;;;;;;;;;;21.25;56.46;100980.72;4843554;29;124688;-72
2023/07/30 07:24:38;;;;;;;;;;;;;;;21.34;56.52;100979.91;4849736;28;119829;-72
2023/07/30 07:27:05;;;;;;;;;;;;;;;21.42;56.58;100974.72;4850795;29;118642;-72
2023/07/30 07:29:32;;;;;;;;;;;;;;;21.47;56.42;100980.56;4842019;28;124500;-72
2023/07/30 07:31:59;;;;;;;;;;;;;;;21.54;56.50;100975.47;4849754;29;124453;-72
2023/07/30 07:34:26;;;;;;;;;;;;;;;21.62;56.57;100982.88;4846642;28;119801;-72
2023/07/30 07:36:53;;;;;;;;;;;;;;;21.69;56.41;100978.66;4846623;29;118762;-72
2023/07/30 07:39:20;;;;;;;;;;;;;;;21.82;56.50;100990.03;4840190;29;125368;-72
2023/07/30 07:41:47;;;;;;;;;;;;;;;21.94;56.63;100990.75;4849144;28;124797;-72
2023/07/30 07:44:14;;;;;;;;;;;;;;;22.04;56.53;100988.94;4843562;29;120225;-72
2023/07/30 07:46:41;;;;;;;;;;;;;;;22.11;56.32;100989.22;4843216;29;117874;-72
2023/07/30 07:49:09;;;;;;;;;;;;;;;22.14;56.23;100983.53;4850460;29;124928;-72
2023/07/30 07:51:36;;;;;;;;;;;;;;;22.15;56.30;100990.63;4844401;29;124343;-72
2023/07/30 07:54:03;;;;;;;;;;;;;;;22.16;56.03;100992.34;4850829;28;120692;-72
2023/07/30 07:56:31;;;;;;;;;;;;;;;22.17;56.08;100988.66;4851302;28;120006;-72
2023/07/30 07:58:58;;;;;;;;;;;;;;;22.21;56.09;100981.13;4851572;29;124414;-71
2023/07/30 08:01:25;;;;;;;;;;;;;;;22.25;56.08;100986.13;4851724;28;125145;-72
2023/07/30 08:03:52;;;;;;;;;;;;;;;22.30;56.05;100988.41;4844197;29;119748;-71
2023/07/30 08:06:19;;;;;;;;;;;;;;;22.33;56.10;100983.56;4850789;28;119005;-71
2023/07/30 08:08:46;;;;;;;;;;;;;;;22.38;56.06;100991.25;4842543;29;124060;-72
2023/07/30 08:11:13;;;;;;;;;;;;;;;22.41;55.88;101000.91;4845145;29;124748;-72
2023/07/30 08:13:41;;;;;;;;;;;;;;;22.43;55.95;100998.91;4850137;28;119604;-72
2023/07/30 08:16:08;;;;;;;;;;;;;;;22.44;56.03;101003.34;4830016;29;117999;-72
2023/07/30 08:18:35;;;;;;;;;;;;;;;22.43;55.82;100998.91;4845919;29;124451;-71
2023/07/30 08:21:02;;;;;;;;;;;;;;;22.40;55.78;101004.63;4843316;28;122680;-72
2023/07/30 08:23:29;;;;;;;;;;;;;;;22.42;55.97;101002.63;4847696;29;119515;-72
2023/07/30 08:25:56;;;;;;;;;;;;;;;22.43;55.92;101004.31;4844439;28;117878;-71
2023/07/30 08:28:23;;;;;;;;;;;;;;;22.48;55.99;101002.03;4838509;29;123286;-72
2023/07/30 08:30:50;;;;;;;;;;;;;;;22.55;56.07;101001.31;4847701;28;124960;-73
2023/07/30 08:33:17;;;;;;;;;;;;;;;22.64;56.01;101007.72;4853832;28;119476;-72
2023/07/30 08:35:44;;;;;;;;;;;;;;;22.70;56.07;100999.03;4852944;29;118696;-71
2023/07/30 08:38:11;;;;;;;;;;;;;;;22.74;55.96;101003.16;4856695;28;124337;-72
2023/07/30 08:40:39;;;;;;;;;;;;;;;22.77;55.96;101009.25;4850251;28;124367;-72
2023/07/30 08:43:06;;;;;;;;;;;;;;;22.77;55.67;101017.34;4857722;29;121516;-72
2023/07/30 08:45:33;;;;;;;;;;;;;;;22.73;55.71;101017.66;4861797;28;119755;-72
2023/07/30 08:48:00;;;;;;;;;;;;;;;22.74;55.69;101018.50;4852788;28;124362;-72
2023/07/30 08:50:28;;;;;;;;;;;;;;;22.73;55.74;101012.25;4856729;28;124455;-72
2023/07/30 08:52:55;;;;;;;;;;;;;;;22.74;55.83;101008.56;4857033;28;119693;-72
2023/07/30 08:55:22;;;;;;;;;;;;;;;22.78;55.95;101008.28;4856823;28;120187;-72
2023/07/30 08:57:50;;;;;;;;;;;;;;;22.84;55.68;101018.50;4856448;28;124414;-72
2023/07/30 09:00:18;;;;;;;;;;;;;;;22.87;55.89;101018.22;4855340;29;124285;-72
2023/07/30 09:02:53;;;;;;;;;;;;;;;22.86;55.67;101011.09;4855774;28;119949;-72
2023/07/30 09:05:20;;;;;;;;;;;;;;;22.84;55.56;101019.31;4851646;28;119018;-72
2023/07/30 09:07:48;;;;;;;;;;;;;;;22.84;55.53;101015.78;4850365;28;124541;-73
2023/07/30 09:10:16;;;;;;;;;;;;;;;22.80;55.47;101017.06;4845306;29;124250;-72
2023/07/30 09:12:43;;;;;;;;;;;;;;;22.74;55.29;101016.66;4856532;28;119828;-72
2023/07/30 09:15:14;;;;;;;;;;;;;;;22.72;55.46;101026.75;4856721;28;117496;-73
2023/07/30 09:17:41;;;;;;;;;;;;;;;22.72;55.62;101021.34;4853859;29;126341;-73
2023/07/30 09:20:08;;;;;;;;;;;;;;;22.74;55.64;101013.09;4853424;28;125661;-72
2023/07/30 09:22:38;;;;;;;;;;;;;;;22.73;55.55;101028.47;4854501;29;119667;-72
2023/07/30 09:25:06;;;;;;;;;;;;;;;22.74;55.64;101034.72;4851868;29;118929;-72
2023/07/30 09:27:33;;;;;;;;;;;;;;;22.76;55.66;101026.47;4850342;28;124182;-71
2023/07/30 09:30:01;;;;;;;;;;;;;;;22.78;55.68;101029.88;4851676;28;123869;-70
2023/07/30 09:32:28;;;;;;;;;;;;;;;22.84;55.70;101034.69;4852704;29;120736;-72
2023/07/30 09:34:55;;;;;;;;;;;;;;;22.89;55.69;101027.00;4849416;29;120108;-72
2023/07/30 09:37:23;;;;;;;;;;;;;;;22.92;55.49;101029.41;4853164;29;124148;-72
2023/07/30 09:39:50;;;;;;;;;;;;;;;22.97;55.67;101029.84;4845234;29;124327;-72
2023/07/30 09:42:17;;;;;;;;;;;;;;;23.09;55.77;101028.72;4853764;28;118612;-71
2023/07/30 09:44:46;;;;;;;;;;;;;;;23.23;55.87;101029.25;4848803;29;118930;-72
2023/07/30 09:47:13;;;;;;;;;;;;;;;23.33;55.72;101030.03;4861060;28;125093;-72
2023/07/30 09:49:40;;;;;;;;;;;;;;;23.40;55.49;101036.56;4852236;29;123848;-72
2023/07/30 09:52:07;;;;;;;;;;;;;;;23.49;55.62;101032.97;4855078;29;119471;-72
2023/07/30 09:54:36;;;;;;;;;;;;;;;23.59;55.37;101034.78;4844953;28;117590;-72
2023/07/30 09:57:03;;;;;;;;;;;;;;;23.66;55.35;101030.50;4836444;28;124445;-72
2023/07/30 09:59:30;;;;;;;;;;;;;;;23.77;55.38;101022.19;4834895;28;123758;-72
2023/07/30 10:01:58;;;;;;;;;;;;;;;23.89;55.55;101015.56;4836732;28;119497;-72
2023/07/30 10:04:26;;;;;;;;;;;;;;;24.01;55.47;101018.06;4835507;28;118930;-72
2023/07/30 10:06:57;;;;;;;;;;;;;;;24.07;55.18;101020.16;4840519;29;122672;-72
2023/07/30 10:09:27;;;;;;;;;;;;;;;24.07;55.10;101017.44;4835019;29;124876;-72
2023/07/30 10:11:54;;;;;;;;;;;;;;;24.03;54.70;101021.47;4839947;28;119477;-72
2023/07/30 10:14:22;;;;;;;;;;;;;;;24.00;54.93;101032.63;4847700;29;118779;-72
2023/07/30 10:16:50;;;;;;;;;;;;;;;23.98;54.82;101040.00;4839240;28;124435;-72
2023/07/30 10:19:21;;;;;;;;;;;;;;;23.89;54.59;101020.97;4826568;29;122919;-73
2023/07/30 10:21:48;;;;;;;;;;;;;;;23.82;54.60;101025.28;4844599;29;119860;-72
2023/07/30 10:24:15;;;;;;;;;;;;;;;23.77;54.76;101042.94;4832697;29;118081;-72
2023/07/30 10:26:43;;;;;;;;;;;;;;;23.69;54.53;101049.09;4837742;28;125081;-72
2023/07/30 10:29:11;;;;;;;;;;;;;;;23.59;54.54;101059.13;4839591;29;124056;-71
2023/07/30 10:31:38;;;;;;;;;;;;;;;23.47;54.36;101075.53;4845266;28;119912;-72
2023/07/30 10:34:07;;;;;;;;;;;;;;;23.31;54.21;101080.69;4832156;29;118493;-72
2023/07/30 10:36:40;;;;;;;;;;;;;;;23.05;53.90;101091.28;4850493;28;123413;-71
2023/07/30 10:39:14;;;;;;;;;;;;;;;22.71;53.79;101081.72;4844402;29;123195;-70
2023/07/30 10:42:00;;;;;;;;;;;;;;;22.37;53.81;101080.44;4838502;28;120436;-70
2023/07/30 10:44:34;;;;;;;;;;;;;;;22.01;54.07;101080.06;4841234;29;119286;-70
2023/07/30 10:47:02;;;;;;;;;;;;;;;21.76;54.23;101071.47;4838844;29;123109;-70
2023/07/30 10:49:29;;;;;;;;;;;;;;;21.56;54.49;101092.94;4835850;29;123107;-71
2023/07/30 10:51:57;;;;;;;;;;;;;;;21.41;54.63;101091.56;4854341;28;119906;-72
2023/07/30 10:54:25;;;;;;;;;;;;;;;21.27;54.86;101098.16;4851601;29;119378;-72
2023/07/30 10:56:52;;;;;;;;;;;;;;;21.12;54.82;101094.94;4836172;29;123561;-70
2023/07/30 10:59:19;;;;;;;;;;;;;;;21.00;55.05;101087.88;4845488;29;124590;-71
2023/07/30 11:01:46;;;;;;;;;;;;;;;20.90;55.12;101084.28;4849833;28;120011;-71
2023/07/30 11:04:19;;;;;;;;;;;;;;;20.84;55.22;101090.19;4848942;28;119161;-71
2023/07/30 11:06:47;;;;;;;;;;;;;;;20.83;55.48;101093.88;4850496;29;125682;-71
2023/07/30 11:09:21;;;;;;;;;;;;;;;20.89;55.73;101090.66;4857312;28;123426;-71
2023/07/30 11:11:49;;;;;;;;;;;;;;;20.97;55.91;101097.09;4844437;28;120993;-70
2023/07/30 11:14:17;;;;;;;;;;;;;;;21.11;56.08;101101.28;4843285;29;121490;-70
2023/07/30 11:16:50;;;;;;;;;;;;;;;21.28;56.25;101088.22;4843446;28;123941;-71
2023/07/30 11:19:18;;;;;;;;;;;;;;;21.46;56.37;101092.06;4843857;29;124312;-70
2023/07/30 11:21:46;;;;;;;;;;;;;;;21.67;56.50;101089.31;4849985;29;119362;-70
2023/07/30 11:24:13;;;;;;;;;;;;;;;21.86;56.33;101093.91;4853324;28;117872;-71
2023/07/30 11:26:41;;;;;;;;;;;;;;;22.04;56.18;101085.16;4846624;29;124384;-70
2023/07/30 11:29:15;;;;;;;;;;;;;;;22.21;56.38;101080.94;4842085;28;124337;-71
2023/07/30 11:31:43;;;;;;;;;;;;;;;22.42;56.33;101083.59;4841936;28;119952;-71
2023/07/30 11:34:11;;;;;;;;;;;;;;;22.61;56.45;101062.00;4840934;29;117824;-71
2023/07/30 11:36:39;;;;;;;;;;;;;;;22.82;56.21;101074.50;4847223;29;124506;-71
2023/07/30 11:39:07;;;;;;;;;;;;;;;23.02;56.27;101076.19;4855764;28;124498;-71
2023/07/30 11:41:34;;;;;;;;;;;;;;;23.23;56.10;101083.28;4842191;28;119258;-71
2023/07/30 11:44:02;;;;;;;;;;;;;;;23.42;55.95;101079.69;4847029;29;119218;-71
2023/07/30 11:46:30;;;;;;;;;;;;;;;23.55;55.86;101082.06;4845353;28;124289;-71
2023/07/30 11:49:12;;;;;;;;;;;;;;;23.66;55.81;101087.28;4844480;29;124415;-71
2023/07/30 11:51:40;;;;;;;;;;;;;;;23.79;55.69;101085.13;4844518;29;120375;-71
2023/07/30 11:54:18;;;;;;;;;;;;;;;23.95;55.56;101094.44;4843439;29;119019;-71
2023/07/30 11:56:45;;;;;;;;;;;;;;;24.10;55.66;101093.75;4840181;28;124437;-71
2023/07/30 11:59:12;;;;;;;;;;;;;;;24.25;55.67;101107.63;4831295;29;123127;-72
2023/07/30 12:01:42;;;;;;;;;;;;;;;24.37;55.47;101097.44;4843238;28;119845;-71
2023/07/30 12:04:09;;;;;;;;;;;;;;;24.51;55.46;101100.66;4838425;29;120596;-72
2023/07/30 12:06:40;;;;;;;;;;;;;;;24.60;54.90;101100.59;4836890;29;124585;-71
2023/07/30 12:09:10;;;;;;;;;;;;;;;24.67;55.24;101096.25;4845650;29;124252;-74
2023/07/30 12:11:48;;;;;;;;;;;;;;;24.77;55.10;101106.16;4845947;29;120044;-71
2023/07/30 12:14:16;;;;;;;;;;;;;;;24.86;54.87;101105.22;4845023;28;119153;-70
2023/07/30 12:16:43;;;;;;;;;;;;;;;24.98;54.86;101103.97;4852776;29;124051;-71
2023/07/30 12:19:10;;;;;;;;;;;;;;;25.09;55.10;101104.72;4847288;29;124383;-71
2023/07/30 12:21:37;;;;;;;;;;;;;;;25.18;54.80;101109.19;4840214;28;119940;-71
2023/07/30 12:24:06;;;;;;;;;;;;;;;25.30;54.83;101094.41;4842163;29;118552;-71
2023/07/30 12:26:33;;;;;;;;;;;;;;;25.37;54.74;101098.19;4846832;28;124326;-71
2023/07/30 12:29:00;;;;;;;;;;;;;;;25.44;54.48;101099.25;4834715;28;124484;-71